NCAR-RAP Real-Time Weather Data

Output produced by METARs form (24 January 2022  23:45 UTC)
found at http://weather.rap.ucar.edu/surface/
 
KDAN 242253Z AUTO 00000KT 10SM CLR 03/M05 A2985 RMK AO2 SLP108 T00281050
KDAN 242153Z AUTO 22004KT 10SM OVC110 08/M06 A2984 RMK AO2 SLP104 T00831056
KDAN 242053Z AUTO 23008KT 10SM OVC110 09/M06 A2985 RMK AO2 SLP106 T00941061 55008
KDAN 241953Z AUTO 22008KT 10SM OVC110 09/M06 A2984 RMK AO2 SLP103 T00941056
KDAN 241853Z AUTO 23011KT 10SM CLR 10/M07 A2986 RMK AO2 SLP109 T01001067
KDAN 241753Z AUTO 25007KT 10SM CLR 08/M06 A2988 RMK AO2 SLP115 T00831061 10089 21056 58020
KDAN 241653Z AUTO VRB03KT 10SM CLR 07/M06 A2992 RMK AO2 SLP129 T00671061 PWINO $
KDAN 241553Z AUTO 00000KT CLR 06/M07 A2994 RMK AO2 SLP135 T00561067 $
KDAN 241453Z AUTO VRB03KT 10SM CLR 03/M04 A2994 RMK AO2 SLP137 T00281044 51010
KDAN 241353Z AUTO 00000KT 10SM CLR M02/M05 A2994 RMK AO2 SLP136 T10221050